Time;durP1;ratioP1;P1;durP2;ratioP2;P2;SDS_P1;SDS_P2;PMS_P1;PMS_P2;Temp;Humidity;BMP_temperature;BMP_pressure;BME280_temperature;BME280_humidity;BME280_pressure;Samples;Min_cycle;Max_cycle;Signal;HPM_P1;HPM_P2
2022/06/21 00:01:15;;;;;;;5.50;2.60;;;;;;;21.14;47.90;100072.01;107761;1243;72197;-80
2022/06/21 00:03:46;;;;;;;5.50;2.80;;;;;;;21.14;48.28;100076.49;107974;1243;71346;-80
2022/06/21 00:06:24;;;;;;;6.10;3.20;;;;;;;21.12;47.73;100084.66;107741;1244;62917;-76
2022/06/21 00:08:54;;;;;;;3.90;2.80;;;;;;;21.09;48.17;100084.10;107798;1243;58981;-80
2022/06/21 00:11:34;;;;;;;7.50;3.10;;;;;;;21.07;48.90;100076.83;107753;1244;59036;-79
2022/06/21 00:14:03;;;;;;;7.00;2.90;;;;;;;21.03;49.19;100076.05;107633;1243;73449;-79
2022/06/21 00:16:32;;;;;;;8.50;3.10;;;;;;;20.99;49.28;100077.63;107556;1243;73036;-79
2022/06/21 00:19:02;;;;;;;5.80;2.80;;;;;;;20.96;49.31;100080.86;107604;1244;59721;-79
2022/06/21 00:21:37;;;;;;;3.90;2.60;;;;;;;20.93;49.55;100086.61;107427;1246;64668;-79
2022/06/21 00:24:06;;;;;;;5.80;3.10;;;;;;;20.89;49.58;100078.38;107537;1243;60351;-79
2022/06/21 00:26:36;;;;;;;5.90;3.10;;;;;;;20.86;49.76;100069.48;107767;1243;59608;-80
2022/06/21 00:29:05;;;;;;;4.40;3.20;;;;;;;20.83;50.48;100068.03;107725;1244;74588;-82
2022/06/21 00:31:37;;;;;;;6.30;2.80;;;;;;;20.78;50.56;100059.77;107532;1243;72706;-79
2022/06/21 00:34:26;;;;;;;6.30;3.20;;;;;;;20.73;50.93;100058.61;107777;1243;70891;-80
2022/06/21 00:37:00;;;;;;;8.30;3.00;;;;;;;20.66;51.04;100061.09;107573;1243;72601;-80
2022/06/21 00:39:28;;;;;;;10.00;3.40;;;;;;;20.60;51.62;100058.70;107790;1243;61671;-78
2022/06/21 00:42:12;;;;;;;4.20;3.00;;;;;;;20.53;51.76;100056.33;108375;1243;59592;-79
2022/06/21 00:44:58;;;;;;;7.40;3.60;;;;;;;20.50;51.89;100055.37;108784;1243;72454;-80
2022/06/21 00:47:58;;;;;;;5.10;3.20;;;;;;;20.45;52.48;100059.34;108755;1243;62958;-78
2022/06/21 00:50:37;;;;;;;8.50;3.10;;;;;;;20.37;52.65;100055.86;107978;1243;61371;-80
2022/06/21 00:53:34;;;;;;;6.50;3.10;;;;;;;20.29;52.73;100051.72;108253;1243;73085;-81
2022/06/21 00:56:24;;;;;;;5.40;3.20;;;;;;;20.23;52.80;100048.36;107787;1243;59625;-81
2022/06/21 00:58:53;;;;;;;5.90;3.10;;;;;;;20.20;53.10;100040.73;107509;1243;61203;-80
2022/06/21 01:01:29;;;;;;;5.60;3.20;;;;;;;20.19;53.39;100036.92;107716;1243;74339;-79
2022/06/21 01:04:14;;;;;;;8.70;3.80;;;;;;;20.17;53.67;100033.73;107627;1244;72803;-79
2022/06/21 01:06:47;;;;;;;6.00;4.30;;;;;;;20.17;53.63;100029.73;107652;1243;71126;-80
2022/06/21 01:09:35;;;;;;;7.90;3.70;;;;;;;20.11;53.88;100029.14;107648;1243;74717;-80
2022/06/21 01:12:24;;;;;;;5.80;3.00;;;;;;;20.03;54.12;100030.41;107662;1244;58126;-80
2022/06/21 01:15:05;;;;;;;6.60;3.40;;;;;;;19.90;54.15;100035.50;107642;1243;60574;-79
2022/06/21 01:17:36;;;;;;;7.20;3.20;;;;;;;19.76;54.85;100029.64;107628;1243;65188;-80
2022/06/21 01:20:11;;;;;;;8.60;3.40;;;;;;;19.63;56.06;100025.53;107707;1243;70245;-80
2022/06/21 01:23:23;;;;;;;4.70;3.30;;;;;;;19.51;56.40;100021.55;107693;1243;71176;-80
2022/06/21 01:26:19;;;;;;;8.00;3.50;;;;;;;19.41;56.98;100009.27;107383;1244;74235;-80
2022/06/21 01:28:50;;;;;;;6.70;3.40;;;;;;;19.38;57.17;100005.30;107820;1243;60993;-81
2022/06/21 01:31:19;;;;;;;7.10;3.40;;;;;;;19.40;57.07;100007.86;108104;1242;59461;-79
2022/06/21 01:33:48;;;;;;;6.10;3.50;;;;;;;19.34;57.35;100008.16;108872;1243;62992;-76
2022/06/21 01:36:46;;;;;;;7.90;3.60;;;;;;;19.29;57.40;100009.71;109508;1243;71488;-78
2022/06/21 01:39:27;;;;;;;7.20;3.30;;;;;;;19.24;57.86;100014.70;108901;1243;67333;-78
2022/06/21 01:42:06;;;;;;;5.80;3.60;;;;;;;19.20;57.22;100021.34;108598;1243;63206;-80
2022/06/21 01:44:45;;;;;;;9.00;4.40;;;;;;;19.13;58.20;100024.10;108325;1243;59551;-79
2022/06/21 01:47:21;;;;;;;6.40;3.70;;;;;;;19.07;58.87;100026.38;108159;1243;58991;-80
2022/06/21 01:49:58;;;;;;;7.50;3.70;;;;;;;19.00;58.76;100025.16;108119;1242;63821;-81
2022/06/21 01:52:33;;;;;;;6.00;3.50;;;;;;;18.88;59.63;100018.98;107952;1242;71122;-79
2022/06/21 01:55:19;;;;;;;8.60;3.40;;;;;;;18.80;58.95;100025.98;107887;1242;69595;-80
2022/06/21 01:57:51;;;;;;;7.00;3.60;;;;;;;18.69;59.09;100017.15;107740;1243;74488;-78
2022/06/21 02:00:19;;;;;;;6.20;4.00;;;;;;;18.56;60.27;100018.83;107461;1244;60178;-79
2022/06/21 02:02:57;;;;;;;11.50;4.00;;;;;;;18.43;61.29;100012.42;107683;1245;59625;-79
2022/06/21 02:05:36;;;;;;;5.80;3.40;;;;;;;18.40;61.64;100011.89;107775;1244;72475;-80
2022/06/21 02:08:11;;;;;;;10.10;4.00;;;;;;;18.33;62.03;100014.16;107785;1243;61679;-80
2022/06/21 02:10:50;;;;;;;6.10;4.20;;;;;;;18.27;62.09;100007.94;107774;1244;60882;-79
2022/06/21 02:13:28;;;;;;;9.70;4.30;;;;;;;18.34;62.44;99999.35;107647;1243;71218;-80
2022/06/21 02:16:21;;;;;;;5.70;4.10;;;;;;;18.42;62.17;99995.52;107787;1243;59653;-80
2022/06/21 02:18:56;;;;;;;5.20;3.70;;;;;;;18.43;61.71;99997.91;107984;1243;59705;-81
2022/06/21 02:21:34;;;;;;;5.80;4.10;;;;;;;18.46;61.70;100004.27;107886;1243;64515;-80
2022/06/21 02:24:03;;;;;;;7.20;4.40;;;;;;;18.52;61.58;100008.39;107883;1243;72292;-77
2022/06/21 02:26:34;;;;;;;8.30;4.20;;;;;;;18.60;61.52;100004.65;107744;1243;70276;-81
2022/06/21 02:29:03;;;;;;;9.30;3.90;;;;;;;18.65;61.56;99998.23;107911;1244;64326;-81
2022/06/21 02:31:32;;;;;;;9.00;4.10;;;;;;;18.69;61.03;99998.63;108065;1243;59772;-81
2022/06/21 02:34:07;;;;;;;8.70;4.10;;;;;;;18.74;61.34;99998.61;108088;1243;58357;-82
2022/06/21 02:36:46;;;;;;;6.90;4.20;;;;;;;18.80;61.28;99997.48;107958;1243;63702;-82
2022/06/21 02:39:20;;;;;;;9.50;4.10;;;;;;;18.88;61.08;99994.44;108087;1242;61688;-79
2022/06/21 02:42:03;;;;;;;9.40;5.00;;;;;;;18.87;61.08;99991.76;108029;1243;71053;-79
2022/06/21 02:44:42;;;;;;;8.80;4.30;;;;;;;18.93;61.20;99983.43;108042;1243;74305;-81
2022/06/21 02:47:17;;;;;;;5.30;3.70;;;;;;;19.00;60.95;99975.78;107825;1243;59123;-82
2022/06/21 02:49:58;;;;;;;9.30;4.50;;;;;;;18.94;60.90;99971.84;107921;1243;61125;-82
2022/06/21 02:52:41;;;;;;;6.50;3.70;;;;;;;18.90;61.27;99971.83;107867;1243;63461;-80
2022/06/21 02:55:39;;;;;;;8.10;3.90;;;;;;;18.94;61.17;99968.38;107890;1243;63481;-80
2022/06/21 02:58:20;;;;;;;10.40;3.70;;;;;;;18.94;61.21;99968.30;107808;1243;70990;-81
2022/06/21 03:00:50;;;;;;;12.90;4.00;;;;;;;18.97;61.31;99971.18;107762;1243;74515;-80
2022/06/21 03:03:27;;;;;;;5.70;3.80;;;;;;;18.90;61.64;99962.42;107720;1244;60892;-82
2022/06/21 03:06:01;;;;;;;9.80;4.00;;;;;;;18.87;61.74;99968.84;107846;1242;60582;-79
2022/06/21 03:08:32;;;;;;;7.90;3.80;;;;;;;18.88;61.66;99967.08;107852;1243;72498;-80
2022/06/21 03:11:01;;;;;;;7.90;3.80;;;;;;;18.90;61.68;99966.20;107777;1243;72654;-80
2022/06/21 03:13:35;;;;;;;5.30;3.70;;;;;;;18.89;61.72;99962.27;107721;1244;60616;-80
2022/06/21 03:16:12;;;;;;;7.40;3.60;;;;;;;18.86;61.95;99961.55;107673;1244;73796;-80
2022/06/21 03:18:48;;;;;;;9.60;4.50;;;;;;;18.87;61.95;99953.10;107778;1244;59546;-79
2022/06/21 03:21:34;;;;;;;7.80;4.00;;;;;;;18.94;61.81;99952.50;108012;1243;61029;-80
2022/06/21 03:24:10;;;;;;;6.90;4.00;;;;;;;18.99;61.82;99950.77;107909;1243;74223;-79
2022/06/21 03:26:44;;;;;;;10.00;4.10;;;;;;;18.99;61.97;99944.05;108049;1242;61534;-81
2022/06/21 03:29:13;;;;;;;11.50;4.50;;;;;;;19.02;61.92;99946.55;107798;1244;60713;-82
2022/06/21 03:31:48;;;;;;;7.90;5.50;;;;;;;19.09;61.83;99958.30;107600;1244;63277;-83
2022/06/21 03:34:21;;;;;;;14.10;8.10;;;;;;;19.13;61.68;99962.27;107385;1244;60823;-81
2022/06/21 03:36:51;;;;;;;8.00;4.40;;;;;;;19.15;61.52;99958.98;107843;1243;61843;-84
2022/06/21 03:42:18;;;;;;;8.90;4.20;;;;;;;19.28;60.85;99944.95;109087;1242;62053;-82
2022/06/21 03:44:56;;;;;;;12.90;5.70;;;;;;;19.38;60.97;99942.97;109352;1243;59908;-80
2022/06/21 03:47:39;;;;;;;11.20;5.50;;;;;;;19.45;60.94;99949.33;108446;1243;62411;-83
2022/06/21 03:50:32;;;;;;;11.10;4.90;;;;;;;19.49;60.76;99951.27;108211;1243;59605;-82
2022/06/21 03:53:22;;;;;;;4.80;3.60;;;;;;;19.59;60.71;99946.49;108191;1243;60510;-79
2022/06/21 03:55:51;;;;;;;6.70;4.20;;;;;;;19.66;60.52;99944.98;108142;1242;62875;-83
2022/06/21 03:58:45;;;;;;;6.80;4.20;;;;;;;19.73;60.28;99938.69;107981;1243;72286;-82
2022/06/21 04:01:45;;;;;;;5.90;4.00;;;;;;;19.83;59.55;99935.69;107737;1243;60293;-81
2022/06/21 04:04:42;;;;;;;9.90;4.70;;;;;;;19.92;59.23;99937.04;107918;1243;63258;-84
2022/06/21 04:07:23;;;;;;;8.30;4.40;;;;;;;20.03;59.03;99930.36;107989;1243;59501;-86
2022/06/21 04:10:05;;;;;;;9.90;4.30;;;;;;;20.14;58.39;99918.91;107861;1243;60686;-83
2022/06/21 04:12:52;;;;;;;10.70;4.70;;;;;;;20.17;58.29;99913.77;107991;1244;65169;-80
2022/06/21 04:15:41;;;;;;;8.10;4.20;;;;;;;20.27;57.91;99910.57;107999;1243;70359;-82
2022/06/21 04:18:19;;;;;;;7.90;4.40;;;;;;;20.40;57.61;99911.16;107990;1243;70606;-79
2022/06/21 04:20:56;;;;;;;11.40;4.80;;;;;;;20.48;57.36;99907.88;107727;1244;64060;-82
2022/06/21 04:23:33;;;;;;;14.40;4.60;;;;;;;20.51;57.35;99912.77;107783;1244;60553;-80
2022/06/21 04:26:08;;;;;;;10.10;4.20;;;;;;;20.56;57.08;99914.95;107590;1246;58913;-79
2022/06/21 04:29:12;;;;;;;9.20;4.70;;;;;;;20.65;56.56;99914.57;107879;1244;73396;-81
2022/06/21 04:32:18;;;;;;;11.50;4.30;;;;;;;20.69;56.52;99917.53;107741;1245;63353;-80
2022/06/21 04:34:56;;;;;;;8.60;4.60;;;;;;;20.69;56.53;99915.08;107749;1246;59216;-82
2022/06/21 04:37:35;;;;;;;6.70;4.40;;;;;;;20.78;56.38;99919.17;107840;1244;74882;-85
2022/06/21 04:40:34;;;;;;;9.20;4.70;;;;;;;20.91;55.93;99925.61;107931;1244;59319;-81
2022/06/21 04:43:45;;;;;;;9.50;5.10;;;;;;;20.93;55.78;99918.17;107651;1247;59421;-82
2022/06/21 04:46:29;;;;;;;10.00;5.10;;;;;;;21.07;55.64;99915.87;107961;1244;74805;-81
2022/06/21 04:49:07;;;;;;;11.90;5.40;;;;;;;21.19;55.33;99918.05;108414;1245;62778;-80
2022/06/21 04:52:21;;;;;;;7.70;4.50;;;;;;;21.30;54.80;99916.34;108691;1244;70534;-79
2022/06/21 04:54:51;;;;;;;12.90;5.50;;;;;;;21.42;54.68;99915.09;108849;1245;73496;-81
2022/06/21 04:57:28;;;;;;;13.10;5.70;;;;;;;21.51;54.58;99915.06;109567;1244;58350;-79
2022/06/21 05:00:06;;;;;;;11.20;5.20;;;;;;;21.54;54.51;99911.35;109163;1244;60477;-81
2022/06/21 05:02:49;;;;;;;19.30;5.90;;;;;;;21.68;54.08;99909.20;108661;1244;72712;-79
2022/06/21 05:05:21;;;;;;;;;;;;;;;21.79;53.77;99909.66;108451;1244;71833;-83
2022/06/21 05:07:58;;;;;;;10.90;4.80;;;;;;;21.88;53.47;99904.80;108258;1244;70158;-80
2022/06/21 05:10:37;;;;;;;9.90;4.70;;;;;;;21.91;53.24;99908.04;107781;1246;74370;-80
2022/06/21 05:13:19;;;;;;;11.10;5.20;;;;;;;22.00;53.21;99911.40;107859;1246;60025;-79
2022/06/21 05:15:48;;;;;;;11.70;4.70;;;;;;;22.04;53.27;99912.27;108143;1244;59543;-82
2022/06/21 05:18:38;;;;;;;10.00;4.80;;;;;;;22.18;52.84;99917.55;107918;1244;64456;-80
2022/06/21 05:21:15;;;;;;;16.00;5.60;;;;;;;22.17;52.78;99917.04;107827;1243;70747;-79
2022/06/21 05:23:45;;;;;;;10.10;5.10;;;;;;;22.23;52.74;99917.73;107857;1243;71012;-81
2022/06/21 05:26:35;;;;;;;9.90;4.90;;;;;;;22.36;52.36;99911.11;108212;1242;63652;-81
2022/06/21 05:29:22;;;;;;;7.20;5.10;;;;;;;22.55;51.62;99904.79;108226;1243;61339;-80
2022/06/21 05:31:58;;;;;;;14.10;5.20;;;;;;;22.61;51.52;99905.09;108373;1243;59519;-81
2022/06/21 05:34:38;;;;;;;13.90;5.20;;;;;;;22.67;51.41;99911.77;108209;1244;73647;-84
2022/06/21 05:37:33;;;;;;;10.00;4.60;;;;;;;22.78;50.92;99908.65;108223;1243;60968;-82
2022/06/21 05:40:18;;;;;;;13.20;5.20;;;;;;;22.86;50.71;99907.53;108205;1243;59178;-82
2022/06/21 05:42:46;;;;;;;8.60;5.20;;;;;;;23.03;50.35;99901.83;107907;1243;73100;-82
2022/06/21 05:45:18;;;;;;;10.50;4.90;;;;;;;23.12;50.21;99900.61;108185;1243;59656;-82
2022/06/21 05:48:13;;;;;;;12.50;4.70;;;;;;;23.29;49.97;99906.38;108078;1243;59597;-82
2022/06/21 05:50:42;;;;;;;10.40;4.10;;;;;;;23.42;49.38;99910.12;108055;1243;74453;-83
2022/06/21 05:53:39;;;;;;;11.00;4.50;;;;;;;23.47;49.25;99904.02;108039;1243;71878;-81
2022/06/21 05:56:14;;;;;;;9.30;5.10;;;;;;;23.65;49.24;99905.33;108049;1243;59630;-80
2022/06/21 05:58:54;;;;;;;11.30;5.40;;;;;;;23.79;48.78;99902.61;108172;1243;73911;-83
2022/06/21 06:01:34;;;;;;;10.50;5.20;;;;;;;23.97;48.65;99901.77;107894;1244;59621;-84
2022/06/21 06:04:32;;;;;;;7.70;4.40;;;;;;;24.09;48.09;99899.77;108128;1243;59439;-81
2022/06/21 06:07:04;;;;;;;11.40;4.90;;;;;;;24.12;47.65;99898.16;107955;1244;63593;-80
2022/06/21 06:09:46;;;;;;;13.60;5.20;;;;;;;24.31;47.49;99898.95;107779;1243;72652;-81
2022/06/21 06:12:30;;;;;;;9.60;4.70;;;;;;;24.48;47.12;99895.78;107875;1244;61555;-85
2022/06/21 06:15:14;;;;;;;6.70;4.00;;;;;;;24.67;46.35;99898.59;108053;1243;63364;-82
2022/06/21 06:17:59;;;;;;;5.70;4.10;;;;;;;24.74;46.31;99900.20;108040;1243;59478;-83
2022/06/21 06:20:37;;;;;;;7.40;4.30;;;;;;;24.89;45.58;99892.98;107794;1246;59567;-83
2022/06/21 06:23:26;;;;;;;8.30;5.10;;;;;;;24.97;45.35;99889.89;107748;1246;63648;-81
2022/06/21 06:26:25;;;;;;;9.00;4.40;;;;;;;25.06;45.33;99883.55;108007;1242;61500;-82
2022/06/21 06:29:17;;;;;;;14.50;4.70;;;;;;;25.20;45.09;99878.89;107657;1243;60031;-82
2022/06/21 06:32:23;;;;;;;5.70;4.00;;;;;;;25.43;44.57;99874.70;107724;1243;73952;-83
2022/06/21 06:34:55;;;;;;;7.30;4.50;;;;;;;25.52;44.24;99866.70;107850;1245;59590;-81
2022/06/21 06:37:45;;;;;;;7.80;4.60;;;;;;;25.65;44.37;99869.89;108035;1243;59454;-82
2022/06/21 06:40:36;;;;;;;8.00;4.50;;;;;;;25.79;43.87;99865.23;108404;1245;71659;-82
2022/06/21 06:43:15;;;;;;;8.30;4.60;;;;;;;25.92;43.02;99856.19;108809;1241;72576;-81
2022/06/21 06:45:44;;;;;;;9.80;4.80;;;;;;;25.93;42.80;99858.52;109163;1243;68707;-83
2022/06/21 06:48:30;;;;;;;8.20;4.50;;;;;;;26.18;42.40;99858.57;108301;1243;62479;-82
2022/06/21 06:51:58;;;;;;;13.10;5.30;;;;;;;26.36;41.84;99860.30;108275;1243;59567;-83
2022/06/21 06:54:44;;;;;;;9.40;4.70;;;;;;;26.57;42.00;99857.17;108009;1243;61883;-83
2022/06/21 06:57:38;;;;;;;11.60;4.60;;;;;;;26.84;41.02;99860.77;108184;1243;65038;-82
2022/06/21 07:00:23;;;;;;;8.60;4.60;;;;;;;26.94;40.97;99858.61;108528;1243;61362;-82
2022/06/21 07:03:13;;;;;;;7.80;4.60;;;;;;;27.10;40.64;99849.61;108615;1243;70227;-83
2022/06/21 07:06:19;;;;;;;10.40;4.70;;;;;;;27.27;40.66;99853.63;108152;1243;72779;-85
2022/06/21 07:09:08;;;;;;;7.20;4.40;;;;;;;27.48;40.03;99858.71;107842;1244;59586;-86
2022/06/21 07:11:39;;;;;;;7.30;4.20;;;;;;;27.62;39.95;99866.41;108156;1243;59501;-83
2022/06/21 07:14:27;;;;;;;6.20;4.20;;;;;;;27.82;39.25;99868.15;108003;1245;64257;-84
2022/06/21 07:17:32;;;;;;;8.20;4.60;;;;;;;28.00;38.58;99868.15;108027;1243;61642;-86
2022/06/21 07:20:28;;;;;;;5.40;4.10;;;;;;;28.15;38.86;99863.98;108017;1243;70593;-84
2022/06/21 07:22:57;;;;;;;7.40;4.60;;;;;;;28.32;38.43;99859.30;108097;1243;64265;-85
2022/06/21 07:25:49;;;;;;;6.90;4.40;;;;;;;28.42;37.99;99857.98;107836;1243;60359;-85
2022/06/21 07:28:38;;;;;;;9.80;4.60;;;;;;;28.42;37.94;99854.98;108373;1243;58246;-87
2022/06/21 07:31:24;;;;;;;8.10;5.00;;;;;;;28.53;37.58;99857.65;108358;1243;63036;-86
2022/06/21 07:34:13;;;;;;;13.20;4.60;;;;;;;28.52;37.35;99857.54;108074;1246;61648;-84
2022/06/21 07:36:52;;;;;;;12.90;4.90;;;;;;;28.49;37.14;99853.95;108073;1243;60038;-79
2022/06/21 07:39:27;;;;;;;7.70;4.30;;;;;;;28.51;37.11;99855.05;107854;1243;63360;-81
2022/06/21 07:42:14;;;;;;;7.40;4.50;;;;;;;28.68;37.01;99852.73;108034;1243;60605;-84
2022/06/21 07:45:24;;;;;;;9.10;4.80;;;;;;;28.84;36.63;99857.33;108154;1244;59632;-83
2022/06/21 07:48:25;;;;;;;7.80;3.90;;;;;;;28.99;36.24;99864.63;108009;1243;74532;-84
2022/06/21 07:51:15;;;;;;;7.90;4.40;;;;;;;29.13;36.07;99856.71;108050;1243;71742;-84
2022/06/21 07:53:54;;;;;;;8.20;4.50;;;;;;;29.21;36.16;99852.81;108088;1243;69957;-82
2022/06/21 07:56:54;;;;;;;6.70;4.50;;;;;;;29.41;35.82;99847.94;108031;1243;74419;-85
2022/06/21 07:59:47;;;;;;;8.50;3.90;;;;;;;29.59;35.16;99847.27;108129;1243;60134;-84
2022/06/21 08:08:58;;;;;;;6.10;4.40;;;;;;;29.31;35.23;99836.17;108652;1243;72716;-84
2022/06/21 08:11:44;;;;;;;10.10;4.60;;;;;;;29.42;35.10;99836.33;109448;1243;60571;-82
2022/06/21 08:14:15;;;;;;;8.20;4.60;;;;;;;29.61;34.89;99828.22;109578;1243;63268;-82
2022/06/21 08:16:53;;;;;;;19.10;5.70;;;;;;;29.77;34.50;99822.32;109199;1243;58272;-80
2022/06/21 08:19:55;;;;;;;6.40;4.80;;;;;;;29.85;34.13;99823.66;108780;1243;59078;-83
2022/06/21 08:23:00;;;;;;;7.80;4.90;;;;;;;30.02;34.13;99813.55;108763;1243;63873;-85
2022/06/21 08:25:41;;;;;;;7.50;3.90;;;;;;;30.40;32.75;99809.34;108429;1243;61010;-84
2022/06/21 08:28:29;;;;;;;7.80;4.70;;;;;;;30.36;32.86;99804.98;108362;1243;59209;-81
2022/06/21 08:31:06;;;;;;;5.80;4.00;;;;;;;30.37;33.13;99800.29;108256;1243;72142;-84
2022/06/21 08:34:19;;;;;;;12.00;5.10;;;;;;;30.46;32.77;99791.16;108362;1243;59629;-84
2022/06/21 08:36:56;;;;;;;6.60;4.00;;;;;;;30.72;32.13;99792.45;108111;1243;60384;-83
2022/06/21 08:39:40;;;;;;;7.30;4.70;;;;;;;30.79;32.52;99789.50;108218;1243;64519;-86
2022/06/21 08:42:27;;;;;;;13.90;5.10;;;;;;;30.79;32.43;99780.39;108143;1243;60767;-82
2022/06/21 08:48:30;;;;;;;7.90;4.70;;;;;;;30.88;31.61;99773.29;108169;1243;64214;-84
2022/06/21 08:51:33;;;;;;;7.60;4.50;;;;;;;31.19;31.55;99773.48;108266;1243;59590;-83
2022/06/21 08:54:32;;;;;;;;;;;;;;;31.37;30.64;99774.59;108146;1243;61854;-85
2022/06/21 08:57:47;;;;;;;6.40;3.40;;;;;;;31.65;30.46;99777.32;108052;1244;74396;-84
2022/06/21 09:00:35;;;;;;;8.60;4.40;;;;;;;31.94;29.35;99776.21;108087;1243;72659;-84
2022/06/21 09:03:28;;;;;;;5.80;4.20;;;;;;;32.02;29.23;99774.77;108037;1243;71021;-84
2022/06/21 09:06:41;;;;;;;9.20;4.20;;;;;;;32.10;28.43;99772.64;107991;1243;74470;-81
2022/06/21 09:09:37;;;;;;;7.60;3.80;;;;;;;32.17;28.46;99774.13;108103;1243;59537;-84
2022/06/21 09:12:51;;;;;;;18.70;4.40;;;;;;;32.16;29.00;99771.16;108108;1244;60191;-85
2022/06/21 09:15:41;;;;;;;5.60;3.60;;;;;;;32.28;28.31;99769.50;108093;1243;63548;-86
2022/06/21 09:18:47;;;;;;;20.50;5.00;;;;;;;32.52;27.68;99762.98;108107;1243;72323;-84
2022/06/21 09:21:18;;;;;;;7.00;4.50;;;;;;;32.68;27.90;99767.05;108226;1243;69981;-84
2022/06/21 09:24:13;;;;;;;5.90;4.40;;;;;;;32.78;27.87;99763.69;108202;1243;62893;-81
2022/06/21 09:27:01;;;;;;;4.70;4.10;;;;;;;32.90;27.32;99762.55;108075;1243;59596;-84
2022/06/21 09:30:01;;;;;;;27.50;4.60;;;;;;;32.70;27.43;99760.51;108143;1243;59617;-86
2022/06/21 09:33:03;;;;;;;6.60;4.50;;;;;;;32.77;27.35;99756.79;108155;1243;64309;-84
2022/06/21 09:36:02;;;;;;;8.30;3.50;;;;;;;32.97;27.38;99754.56;108053;1243;72235;-85
2022/06/21 09:39:11;;;;;;;5.90;3.50;;;;;;;32.85;27.24;99758.91;107985;1244;70145;-83
2022/06/21 09:42:04;;;;;;;4.60;3.80;;;;;;;32.86;26.73;99760.02;107950;1243;73862;-84
2022/06/21 09:45:23;;;;;;;4.80;3.40;;;;;;;32.78;27.25;99754.77;108223;1243;62261;-80
2022/06/21 09:48:25;;;;;;;15.90;4.70;;;;;;;32.67;27.48;99752.35;108087;1244;59443;-84
2022/06/21 09:51:55;;;;;;;4.70;3.20;;;;;;;32.67;27.88;99744.83;108106;1243;63555;-82
2022/06/21 09:54:32;;;;;;;5.70;3.40;;;;;;;32.73;27.66;99742.08;108087;1241;71820;-83
2022/06/21 09:57:26;;;;;;;6.70;3.90;;;;;;;32.84;28.01;99742.19;109362;1242;60320;-84
2022/06/21 10:00:22;;;;;;;7.40;3.80;;;;;;;32.88;27.96;99745.30;109089;1243;62373;-83
2022/06/21 10:03:49;;;;;;;13.10;4.10;;;;;;;33.24;27.73;99741.13;108347;1243;59639;-82
2022/06/21 10:06:32;;;;;;;7.00;3.50;;;;;;;33.57;27.75;99725.86;107971;1243;61373;-84
2022/06/21 10:09:32;;;;;;;6.70;3.60;;;;;;;33.55;27.63;99721.44;108215;1243;64170;-82
2022/06/21 10:12:27;;;;;;;5.00;3.60;;;;;;;33.63;27.57;99716.48;108085;1243;72166;-85
2022/06/21 10:15:24;;;;;;;8.20;4.00;;;;;;;32.98;27.93;99720.57;108157;1243;70069;-85
2022/06/21 10:18:05;;;;;;;10.30;4.00;;;;;;;32.56;28.46;99724.98;108037;1245;62918;-84
2022/06/21 10:20:42;;;;;;;4.70;3.60;;;;;;;31.97;29.27;99718.78;108115;1243;60265;-83
2022/06/21 10:23:42;;;;;;;11.70;4.20;;;;;;;31.74;30.07;99726.02;108007;1242;60047;-82
2022/06/21 10:26:28;;;;;;;7.40;4.20;;;;;;;31.43;31.17;99737.29;108043;1244;73662;-84
2022/06/21 10:30:00;;;;;;;9.80;5.30;;;;;;;31.12;32.59;99754.44;108246;1243;62185;-85
2022/06/21 10:33:05;;;;;;;11.40;5.10;;;;;;;30.63;34.81;99770.69;107500;1244;70635;-83
2022/06/21 10:35:55;;;;;;;13.80;5.00;;;;;;;30.32;36.80;99793.47;108005;1244;63928;-85
2022/06/21 10:38:49;;;;;;;12.10;5.00;;;;;;;29.77;38.95;99795.34;107896;1244;59535;-83
2022/06/21 10:45:35;;;;;;;10.60;4.40;;;;;;;28.60;42.58;99804.70;108115;1243;63359;-83
2022/06/21 10:48:22;;;;;;;12.70;4.60;;;;;;;28.22;43.96;99837.77;108409;1242;72299;-85
2022/06/21 10:51:13;;;;;;;8.40;3.80;;;;;;;28.08;44.11;99848.16;108319;1243;70429;-85
2022/06/21 10:53:47;;;;;;;11.30;5.00;;;;;;;28.06;44.40;99864.06;108090;1243;63777;-82
2022/06/21 11:02:56;;;;;;;10.00;5.40;;;;;;;27.26;50.06;99880.41;108116;1243;64202;-80
2022/06/21 11:05:40;;;;;;;16.40;6.10;;;;;;;27.07;50.05;99878.48;108154;1243;60880;-79
2022/06/21 11:08:58;;;;;;;7.80;4.20;;;;;;;27.07;49.45;99878.45;108216;1243;68484;-83
2022/06/21 11:11:50;;;;;;;9.80;5.10;;;;;;;27.33;47.58;99878.02;108263;1244;62668;-81
2022/06/21 11:14:22;;;;;;;12.00;4.60;;;;;;;27.72;46.11;99881.30;108281;1242;57905;-84
2022/06/21 11:17:19;;;;;;;;;;;;;;;28.05;45.02;99877.14;108211;1243;59697;-85
2022/06/21 11:20:23;;;;;;;7.80;4.10;;;;;;;28.46;44.45;99871.42;108262;1243;74429;-85
2022/06/21 11:23:14;;;;;;;14.40;4.60;;;;;;;28.92;43.24;99861.95;108005;1243;71494;-85
2022/06/21 11:26:32;;;;;;;11.70;4.50;;;;;;;29.32;42.24;99864.53;108052;1244;60406;-82
2022/06/21 11:29:35;;;;;;;10.10;4.40;;;;;;;29.87;41.04;99864.90;107824;1243;676659;-84
2022/06/21 11:32:34;;;;;;;12.90;4.50;;;;;;;30.32;40.38;99853.21;108530;1243;60389;-83
2022/06/21 11:35:35;;;;;;;17.40;3.80;;;;;;;30.53;40.63;99881.02;108382;1243;59497;-85
2022/06/21 11:38:32;;;;;;;25.70;4.40;;;;;;;30.55;40.59;99863.94;108037;1243;72709;-84
2022/06/21 11:45:39;;;;;;;18.20;3.60;;;;;;;29.73;41.20;99854.35;108730;1243;59609;-83
2022/06/21 11:48:55;;;;;;;10.40;2.50;;;;;;;29.30;41.56;99854.98;107661;1249;72130;-86
2022/06/21 11:51:52;;;;;;;12.40;3.00;;;;;;;29.29;41.15;99851.71;108058;1243;59517;-83
2022/06/21 11:54:31;;;;;;;16.50;3.00;;;;;;;29.39;40.90;99851.69;108156;1244;59679;-82
2022/06/21 11:57:21;;;;;;;14.50;2.70;;;;;;;29.45;40.41;99860.77;108047;1243;72946;-81
2022/06/21 12:00:30;;;;;;;6.20;2.30;;;;;;;29.42;39.59;99871.67;108185;1243;71935;-82
2022/06/21 12:03:22;;;;;;;9.00;2.80;;;;;;;29.39;39.91;99870.09;108171;1243;59095;-83
2022/06/21 12:06:07;;;;;;;13.60;2.60;;;;;;;29.23;40.06;99878.35;108085;1243;63278;-81
2022/06/21 12:09:05;;;;;;;6.80;1.90;;;;;;;29.05;39.76;99892.15;108089;1243;58213;-79
2022/06/21 12:11:58;;;;;;;7.60;2.00;;;;;;;29.19;38.89;99889.13;107930;1243;60530;-79
2022/06/21 12:15:06;;;;;;;8.50;2.20;;;;;;;29.33;39.09;99899.55;108190;1244;64725;-82
2022/06/21 12:17:55;;;;;;;10.90;2.50;;;;;;;29.58;38.33;99917.84;108105;1243;72186;-83
2022/06/21 12:20:31;;;;;;;8.80;2.20;;;;;;;29.17;39.09;99922.08;108036;1243;70169;-83
2022/06/21 12:23:44;;;;;;;9.10;2.50;;;;;;;29.17;39.30;99917.84;108165;1243;63020;-81
2022/06/21 12:26:20;;;;;;;5.70;2.00;;;;;;;28.76;39.92;99919.06;107938;1245;59602;-81
2022/06/21 12:28:51;;;;;;;8.50;2.40;;;;;;;28.13;41.35;99913.40;108105;1244;60221;-83
2022/06/21 12:31:33;;;;;;;13.00;2.40;;;;;;;28.34;40.26;99917.86;107982;1244;63051;-83
2022/06/21 12:34:11;;;;;;;5.10;2.20;;;;;;;28.33;39.89;99916.09;107727;1246;61827;-82
2022/06/21 12:36:54;;;;;;;6.40;2.60;;;;;;;28.23;40.23;99906.15;107694;1244;60062;-83
2022/06/21 12:39:43;;;;;;;7.30;2.40;;;;;;;28.61;38.72;99907.19;108132;1243;73415;-81
2022/06/21 12:42:55;;;;;;;4.50;2.10;;;;;;;28.85;37.89;99903.42;107879;1244;61182;-81
2022/06/21 12:45:51;;;;;;;6.00;2.40;;;;;;;29.05;37.80;99901.61;108055;1243;60153;-82
2022/06/21 12:49:15;;;;;;;10.00;2.30;;;;;;;29.64;36.06;99909.28;108128;1243;64370;-82
2022/06/21 12:52:17;;;;;;;5.90;2.40;;;;;;;29.66;35.28;99910.54;108122;1243;72207;-81
2022/06/21 12:55:28;;;;;;;10.50;1.70;;;;;;;29.86;34.22;99917.16;108176;1244;59680;-83
2022/06/21 12:58:01;;;;;;;5.20;1.70;;;;;;;29.50;33.51;99921.64;107961;1244;73420;-83
2022/06/21 13:00:55;;;;;;;3.10;1.80;;;;;;;29.71;32.76;99926.79;108076;1244;60954;-83
2022/06/21 13:03:54;;;;;;;6.40;2.20;;;;;;;29.32;33.70;99923.59;108800;1244;58033;-82
2022/06/21 13:06:50;;;;;;;9.10;2.30;;;;;;;29.06;34.57;99922.16;108781;1243;74490;-81
2022/06/21 13:09:47;;;;;;;4.60;2.10;;;;;;;28.86;35.09;99924.36;108855;1243;62404;-81
2022/06/21 13:12:38;;;;;;;4.70;2.30;;;;;;;28.54;36.04;99924.80;108612;1244;60814;-82
2022/06/21 13:15:10;;;;;;;4.40;2.20;;;;;;;28.67;35.47;99935.15;108253;1243;74889;-83
2022/06/21 13:18:25;;;;;;;9.20;2.40;;;;;;;28.77;34.79;99938.66;107963;1244;60032;-81